sensor_id;sensor_type;location;lat;lon;timestamp;P1;durP1;ratioP1;P2;durP2;ratioP2
74912;SDS011;63878;55.624;37.304;2023-07-09T00:02:49;15.52;;;9.10;;
74912;SDS011;63878;55.624;37.304;2023-07-09T00:12:49;14.43;;;8.90;;
74912;SDS011;63878;55.624;37.304;2023-07-09T00:22:50;17.30;;;8.67;;
74912;SDS011;63878;55.624;37.304;2023-07-09T00:32:50;15.50;;;8.35;;
74912;SDS011;63878;55.624;37.304;2023-07-09T00:42:52;13.40;;;7.43;;
74912;SDS011;63878;55.624;37.304;2023-07-09T00:52:55;15.27;;;7.85;;
74912;SDS011;63878;55.624;37.304;2023-07-09T01:02:59;13.75;;;8.00;;
74912;SDS011;63878;55.624;37.304;2023-07-09T01:13:00;14.25;;;7.95;;
74912;SDS011;63878;55.624;37.304;2023-07-09T01:23:01;18.38;;;9.10;;
74912;SDS011;63878;55.624;37.304;2023-07-09T01:33:02;15.90;;;9.30;;
74912;SDS011;63878;55.624;37.304;2023-07-09T01:43:03;12.10;;;8.43;;
74912;SDS011;63878;55.624;37.304;2023-07-09T01:53:04;12.38;;;7.80;;
74912;SDS011;63878;55.624;37.304;2023-07-09T02:03:05;13.77;;;8.32;;
74912;SDS011;63878;55.624;37.304;2023-07-09T02:13:06;14.10;;;8.80;;
74912;SDS011;63878;55.624;37.304;2023-07-09T02:23:07;13.55;;;9.43;;
74912;SDS011;63878;55.624;37.304;2023-07-09T02:33:08;13.35;;;9.15;;
74912;SDS011;63878;55.624;37.304;2023-07-09T02:43:09;14.00;;;9.73;;
74912;SDS011;63878;55.624;37.304;2023-07-09T02:53:09;16.90;;;9.33;;
74912;SDS011;63878;55.624;37.304;2023-07-09T03:03:10;11.65;;;8.10;;
74912;SDS011;63878;55.624;37.304;2023-07-09T03:13:10;12.52;;;7.75;;
74912;SDS011;63878;55.624;37.304;2023-07-09T03:23:11;11.25;;;8.05;;
74912;SDS011;63878;55.624;37.304;2023-07-09T03:33:12;14.07;;;8.20;;
74912;SDS011;63878;55.624;37.304;2023-07-09T03:43:13;14.48;;;9.88;;
74912;SDS011;63878;55.624;37.304;2023-07-09T03:53:15;12.67;;;9.43;;
74912;SDS011;63878;55.624;37.304;2023-07-09T04:03:16;17.02;;;9.98;;
74912;SDS011;63878;55.624;37.304;2023-07-09T04:13:17;14.97;;;9.00;;
74912;SDS011;63878;55.624;37.304;2023-07-09T04:23:18;11.82;;;7.70;;
74912;SDS011;63878;55.624;37.304;2023-07-09T04:33:19;12.63;;;8.05;;
74912;SDS011;63878;55.624;37.304;2023-07-09T04:53:21;8.88;;;5.78;;
74912;SDS011;63878;55.624;37.304;2023-07-09T05:03:21;5.65;;;4.53;;
74912;SDS011;63878;55.624;37.304;2023-07-09T05:13:22;6.32;;;3.70;;
74912;SDS011;63878;55.624;37.304;2023-07-09T05:23:24;3.97;;;3.03;;
74912;SDS011;63878;55.624;37.304;2023-07-09T05:33:25;5.43;;;3.28;;
74912;SDS011;63878;55.624;37.304;2023-07-09T05:43:25;3.13;;;2.70;;
74912;SDS011;63878;55.624;37.304;2023-07-09T05:53:26;3.58;;;2.88;;
74912;SDS011;63878;55.624;37.304;2023-07-09T06:03:27;4.05;;;2.40;;
74912;SDS011;63878;55.624;37.304;2023-07-09T06:13:29;5.47;;;3.20;;
74912;SDS011;63878;55.624;37.304;2023-07-09T06:23:31;4.88;;;2.55;;
74912;SDS011;63878;55.624;37.304;2023-07-09T06:33:31;4.05;;;3.10;;
74912;SDS011;63878;55.624;37.304;2023-07-09T06:43:32;3.25;;;2.88;;
74912;SDS011;63878;55.624;37.304;2023-07-09T06:53:32;4.63;;;2.70;;
74912;SDS011;63878;55.624;37.304;2023-07-09T07:03:33;4.03;;;2.80;;
74912;SDS011;63878;55.624;37.304;2023-07-09T07:13:35;2.87;;;2.27;;
74912;SDS011;63878;55.624;37.304;2023-07-09T07:23:37;7.70;;;2.88;;
74912;SDS011;63878;55.624;37.304;2023-07-09T07:33:39;3.30;;;2.73;;
74912;SDS011;63878;55.624;37.304;2023-07-09T07:43:40;2.78;;;2.38;;
74912;SDS011;63878;55.624;37.304;2023-07-09T07:53:41;3.23;;;2.60;;
74912;SDS011;63878;55.624;37.304;2023-07-09T08:03:42;5.22;;;3.05;;
74912;SDS011;63878;55.624;37.304;2023-07-09T08:13:42;5.55;;;3.00;;
74912;SDS011;63878;55.624;37.304;2023-07-09T08:23:43;4.35;;;2.58;;
74912;SDS011;63878;55.624;37.304;2023-07-09T08:33:44;3.85;;;2.60;;
74912;SDS011;63878;55.624;37.304;2023-07-09T08:53:56;4.63;;;2.72;;
74912;SDS011;63878;55.624;37.304;2023-07-09T09:04:20;6.88;;;3.00;;
74912;SDS011;63878;55.624;37.304;2023-07-09T09:14:30;2.63;;;2.03;;
74912;SDS011;63878;55.624;37.304;2023-07-09T09:24:47;5.65;;;2.45;;
74912;SDS011;63878;55.624;37.304;2023-07-09T09:34:53;3.72;;;2.78;;
74912;SDS011;63878;55.624;37.304;2023-07-09T09:44:55;3.28;;;2.65;;
74912;SDS011;63878;55.624;37.304;2023-07-09T09:55:01;4.65;;;3.00;;
74912;SDS011;63878;55.624;37.304;2023-07-09T10:05:12;3.97;;;3.08;;
74912;SDS011;63878;55.624;37.304;2023-07-09T10:46:19;4.20;;;2.80;;
74912;SDS011;63878;55.624;37.304;2023-07-09T10:56:26;3.50;;;2.70;;
74912;SDS011;63878;55.624;37.304;2023-07-09T11:16:33;4.72;;;2.30;;
74912;SDS011;63878;55.624;37.304;2023-07-09T11:26:46;3.13;;;2.30;;
74912;SDS011;63878;55.624;37.304;2023-07-09T11:57:24;3.90;;;2.40;;
74912;SDS011;63878;55.624;37.304;2023-07-09T12:07:28;3.20;;;2.22;;
74912;SDS011;63878;55.624;37.304;2023-07-09T12:17:29;6.05;;;2.45;;
74912;SDS011;63878;55.624;37.304;2023-07-09T12:27:30;3.80;;;2.50;;
74912;SDS011;63878;55.624;37.304;2023-07-09T12:37:31;3.90;;;2.30;;
74912;SDS011;63878;55.624;37.304;2023-07-09T12:47:32;3.75;;;2.50;;
74912;SDS011;63878;55.624;37.304;2023-07-09T12:57:33;3.78;;;2.40;;
74912;SDS011;63878;55.624;37.304;2023-07-09T13:07:38;3.60;;;2.53;;
74912;SDS011;63878;55.624;37.304;2023-07-09T13:17:41;2.95;;;2.30;;
74912;SDS011;63878;55.624;37.304;2023-07-09T13:27:43;4.60;;;2.53;;
74912;SDS011;63878;55.624;37.304;2023-07-09T13:37:44;3.10;;;2.47;;
74912;SDS011;63878;55.624;37.304;2023-07-09T13:47:45;4.35;;;2.75;;
74912;SDS011;63878;55.624;37.304;2023-07-09T13:57:47;4.35;;;2.72;;
74912;SDS011;63878;55.624;37.304;2023-07-09T14:07:48;6.32;;;2.40;;
74912;SDS011;63878;55.624;37.304;2023-07-09T14:17:48;5.10;;;2.70;;
74912;SDS011;63878;55.624;37.304;2023-07-09T14:27:50;5.80;;;2.37;;
74912;SDS011;63878;55.624;37.304;2023-07-09T14:37:52;5.43;;;2.70;;
74912;SDS011;63878;55.624;37.304;2023-07-09T14:47:53;4.13;;;2.60;;
74912;SDS011;63878;55.624;37.304;2023-07-09T14:57:54;3.47;;;2.17;;
74912;SDS011;63878;55.624;37.304;2023-07-09T15:07:55;13.65;;;4.18;;
74912;SDS011;63878;55.624;37.304;2023-07-09T15:17:57;4.23;;;2.20;;
74912;SDS011;63878;55.624;37.304;2023-07-09T15:28:00;3.17;;;2.40;;
74912;SDS011;63878;55.624;37.304;2023-07-09T15:38:01;3.13;;;2.38;;
74912;SDS011;63878;55.624;37.304;2023-07-09T15:48:27;2.28;;;1.85;;
74912;SDS011;63878;55.624;37.304;2023-07-09T15:58:29;3.65;;;2.00;;
74912;SDS011;63878;55.624;37.304;2023-07-09T16:08:38;4.43;;;2.65;;
74912;SDS011;63878;55.624;37.304;2023-07-09T16:18:38;2.80;;;2.35;;
74912;SDS011;63878;55.624;37.304;2023-07-09T16:28:39;4.95;;;2.85;;
74912;SDS011;63878;55.624;37.304;2023-07-09T16:38:40;3.67;;;2.17;;
74912;SDS011;63878;55.624;37.304;2023-07-09T16:48:40;2.47;;;2.20;;
74912;SDS011;63878;55.624;37.304;2023-07-09T16:58:41;6.67;;;2.47;;
74912;SDS011;63878;55.624;37.304;2023-07-09T17:08:42;4.10;;;2.53;;
74912;SDS011;63878;55.624;37.304;2023-07-09T17:18:42;4.90;;;2.67;;
74912;SDS011;63878;55.624;37.304;2023-07-09T17:28:43;3.17;;;2.20;;
74912;SDS011;63878;55.624;37.304;2023-07-09T17:38:44;5.05;;;2.40;;
74912;SDS011;63878;55.624;37.304;2023-07-09T17:48:45;3.00;;;1.98;;
74912;SDS011;63878;55.624;37.304;2023-07-09T17:58:46;3.83;;;2.60;;
74912;SDS011;63878;55.624;37.304;2023-07-09T18:08:48;2.42;;;2.22;;
74912;SDS011;63878;55.624;37.304;2023-07-09T18:18:48;4.47;;;2.20;;
74912;SDS011;63878;55.624;37.304;2023-07-09T18:28:49;3.27;;;1.87;;
74912;SDS011;63878;55.624;37.304;2023-07-09T18:38:50;4.32;;;1.98;;
74912;SDS011;63878;55.624;37.304;2023-07-09T18:48:51;3.83;;;1.85;;
74912;SDS011;63878;55.624;37.304;2023-07-09T18:58:51;2.10;;;1.80;;
74912;SDS011;63878;55.624;37.304;2023-07-09T19:08:52;2.53;;;1.83;;
74912;SDS011;63878;55.624;37.304;2023-07-09T19:18:53;3.05;;;1.92;;
74912;SDS011;63878;55.624;37.304;2023-07-09T19:28:54;3.50;;;1.92;;
74912;SDS011;63878;55.624;37.304;2023-07-09T19:38:55;2.83;;;1.50;;
74912;SDS011;63878;55.624;37.304;2023-07-09T19:48:56;4.05;;;2.05;;
74912;SDS011;63878;55.624;37.304;2023-07-09T19:58:57;3.07;;;1.77;;
74912;SDS011;63878;55.624;37.304;2023-07-09T20:08:57;1.90;;;1.70;;
74912;SDS011;63878;55.624;37.304;2023-07-09T20:18:58;2.67;;;1.85;;
74912;SDS011;63878;55.624;37.304;2023-07-09T20:29:00;3.17;;;2.28;;
74912;SDS011;63878;55.624;37.304;2023-07-09T20:39:01;2.67;;;2.27;;
74912;SDS011;63878;55.624;37.304;2023-07-09T20:49:04;2.55;;;1.63;;
74912;SDS011;63878;55.624;37.304;2023-07-09T20:59:17;2.97;;;2.40;;
74912;SDS011;63878;55.624;37.304;2023-07-09T21:09:27;3.80;;;2.40;;
74912;SDS011;63878;55.624;37.304;2023-07-09T21:19:31;2.38;;;2.17;;
74912;SDS011;63878;55.624;37.304;2023-07-09T21:29:33;2.55;;;1.98;;
74912;SDS011;63878;55.624;37.304;2023-07-09T21:39:34;2.10;;;2.00;;
74912;SDS011;63878;55.624;37.304;2023-07-09T21:49:37;2.50;;;1.73;;
74912;SDS011;63878;55.624;37.304;2023-07-09T21:59:42;3.17;;;2.20;;
74912;SDS011;63878;55.624;37.304;2023-07-09T22:09:43;2.72;;;2.05;;
74912;SDS011;63878;55.624;37.304;2023-07-09T22:19:44;4.17;;;1.97;;
74912;SDS011;63878;55.624;37.304;2023-07-09T22:29:45;1.93;;;1.77;;
74912;SDS011;63878;55.624;37.304;2023-07-09T22:39:45;2.72;;;2.00;;
74912;SDS011;63878;55.624;37.304;2023-07-09T22:49:46;3.80;;;2.10;;
74912;SDS011;63878;55.624;37.304;2023-07-09T22:59:47;2.58;;;2.20;;
74912;SDS011;63878;55.624;37.304;2023-07-09T23:09:47;2.77;;;2.47;;
74912;SDS011;63878;55.624;37.304;2023-07-09T23:19:48;3.13;;;2.57;;
74912;SDS011;63878;55.624;37.304;2023-07-09T23:29:49;2.80;;;2.47;;
74912;SDS011;63878;55.624;37.304;2023-07-09T23:39:49;5.10;;;2.67;;
74912;SDS011;63878;55.624;37.304;2023-07-09T23:49:50;3.40;;;2.40;;
74912;SDS011;63878;55.624;37.304;2023-07-09T23:59:51;4.10;;;2.53;;
